Time;durP1;ratioP1;P1;durP2;ratioP2;P2;SDS_P1;SDS_P2;PMS_P1;PMS_P2;Temp;Humidity;BMP_temperature;BMP_pressure;BME280_temperature;BME280_humidity;BME280_pressure;Samples;Min_cycle;Max_cycle;Signal;HPM_P1;HPM_P2
2023/05/18 00:00:34;;;;;;;0.53;0.53;;;19.00;82.90;;;;;;4943301;28;22128;-76
2023/05/18 00:03:02;;;;;;;1.13;0.80;;;19.00;83.00;;;;;;4937248;28;20433;-76
2023/05/18 00:05:32;;;;;;;0.60;0.60;;;18.90;83.30;;;;;;4938780;29;20214;-76
2023/05/18 00:08:01;;;;;;;0.53;0.53;;;18.90;83.40;;;;;;4944515;28;20606;-76
2023/05/18 00:10:31;;;;;;;0.60;0.60;;;18.90;83.30;;;;;;4948621;28;20220;-75
2023/05/18 00:12:59;;;;;;;4.40;0.97;;;18.90;83.50;;;;;;4950191;29;20252;-75
2023/05/18 00:15:28;;;;;;;2.13;1.13;;;18.80;83.70;;;;;;4952314;28;20631;-75
2023/05/18 00:17:57;;;;;;;2.10;1.07;;;18.80;83.90;;;;;;4951852;29;20228;-76
2023/05/18 00:20:26;;;;;;;0.83;0.83;;;18.80;83.70;;;;;;4945917;28;20214;-75
2023/05/18 00:22:54;;;;;;;1.00;0.63;;;18.70;83.70;;;;;;4950577;29;20198;-75
2023/05/18 00:25:23;;;;;;;3.73;1.37;;;18.70;83.80;;;;;;4945989;29;20230;-76
2023/05/18 00:27:53;;;;;;;1.10;0.80;;;18.70;83.80;;;;;;4944591;28;20289;-76
2023/05/18 00:30:23;;;;;;;1.03;0.90;;;18.70;83.80;;;;;;4944301;28;20257;-75
2023/05/18 00:32:51;;;;;;;0.97;0.73;;;18.70;83.70;;;;;;4947650;28;20198;-77
2023/05/18 00:35:20;;;;;;;4.77;2.07;;;18.70;84.70;;;;;;4945635;28;20195;-74
2023/05/18 00:37:48;;;;;;;0.50;0.50;;;18.60;83.70;;;;;;4937275;28;20655;-75
2023/05/18 00:40:17;;;;;;;0.60;0.60;;;18.60;83.90;;;;;;4942934;28;20198;-76
2023/05/18 00:42:45;;;;;;;0.37;0.37;;;18.60;83.80;;;;;;4947395;28;20241;-75
2023/05/18 00:45:15;;;;;;;2.00;0.70;;;18.60;84.00;;;;;;4944416;28;20226;-76
2023/05/18 00:47:43;;;;;;;0.90;0.90;;;18.60;83.90;;;;;;4947991;28;20834;-76
2023/05/18 00:50:12;;;;;;;3.53;1.67;;;18.50;84.00;;;;;;4946117;28;20626;-76
2023/05/18 00:52:41;;;;;;;1.60;0.70;;;18.50;84.00;;;;;;4946944;29;20202;-75
2023/05/18 00:55:12;;;;;;;1.80;1.17;;;18.50;84.00;;;;;;4946040;29;20198;-76
2023/05/18 00:57:43;;;;;;;1.93;1.03;;;18.50;84.00;;;;;;4947899;29;20201;-76
2023/05/18 01:00:14;;;;;;;0.60;0.60;;;18.50;83.90;;;;;;4944857;28;20198;-76
2023/05/18 01:02:44;;;;;;;0.70;0.70;;;18.50;83.70;;;;;;4947695;28;20199;-76
2023/05/18 01:05:13;;;;;;;1.17;0.67;;;18.40;83.70;;;;;;4945638;28;20755;-75
2023/05/18 01:07:42;;;;;;;0.73;0.73;;;18.40;83.50;;;;;;4945774;28;20203;-76
2023/05/18 01:10:12;;;;;;;0.47;0.47;;;18.40;83.40;;;;;;4948550;28;20198;-76
2023/05/18 01:12:44;;;;;;;1.70;1.43;;;18.40;83.40;;;;;;4950230;28;20198;-76
2023/05/18 01:15:17;;;;;;;0.97;0.60;;;18.40;83.50;;;;;;4947652;28;20195;-77
2023/05/18 01:18:03;;;;;;;0.40;0.40;;;18.40;83.40;;;;;;4948028;29;20194;-76
2023/05/18 01:20:36;;;;;;;1.77;0.57;;;18.40;83.60;;;;;;4949160;28;20206;-77
2023/05/18 01:23:41;;;;;;;0.40;0.40;;;18.40;83.60;;;;;;4945028;28;20191;-76
2023/05/18 01:26:15;;;;;;;0.63;0.63;;;18.40;84.10;;;;;;4909615;28;20218;-75
2023/05/18 01:28:46;;;;;;;1.47;0.80;;;18.40;83.80;;;;;;4941999;28;20214;-75
2023/05/18 01:31:15;;;;;;;1.37;0.90;;;18.40;83.90;;;;;;4952696;28;20240;-76
2023/05/18 01:33:44;;;;;;;2.13;0.90;;;18.40;83.80;;;;;;4946255;28;20690;-75
2023/05/18 01:36:12;;;;;;;0.93;0.93;;;18.30;83.90;;;;;;4952212;28;20545;-76
2023/05/18 01:38:41;;;;;;;0.87;0.80;;;18.30;84.00;;;;;;4952910;28;20561;-76
2023/05/18 01:41:21;;;;;;;1.67;1.57;;;18.30;83.90;;;;;;4952022;28;20569;-75
2023/05/18 01:43:56;;;;;;;3.03;0.53;;;18.30;84.30;;;;;;4951934;28;20223;-76
2023/05/18 01:46:40;;;;;;;6.50;0.97;;;18.30;84.10;;;;;;4949730;28;20305;-75
2023/05/18 01:49:15;;;;;;;0.60;0.60;;;18.30;84.40;;;;;;4947183;28;20542;-75
2023/05/18 01:51:46;;;;;;;0.60;0.57;;;18.20;84.40;;;;;;4944372;28;20202;-76
2023/05/18 01:54:19;;;;;;;1.43;1.33;;;18.20;84.40;;;;;;4946335;28;20746;-76
2023/05/18 01:56:50;;;;;;;0.97;0.70;;;18.20;84.40;;;;;;4946626;28;20196;-75
2023/05/18 01:59:19;;;;;;;1.00;0.83;;;18.20;84.40;;;;;;4949972;28;20357;-76
2023/05/18 02:01:47;;;;;;;0.70;0.70;;;18.20;84.40;;;;;;4945901;28;20202;-76
2023/05/18 02:04:16;;;;;;;0.67;0.60;;;18.20;84.30;;;;;;4950224;28;20911;-75
2023/05/18 02:06:44;;;;;;;5.40;0.60;;;18.20;84.20;;;;;;4948848;28;20222;-76
2023/05/18 02:09:12;;;;;;;1.50;1.03;;;18.20;84.10;;;;;;4945453;28;20210;-76
2023/05/18 02:11:41;;;;;;;1.80;0.57;;;18.20;84.00;;;;;;4948999;28;20545;-75
2023/05/18 02:14:11;;;;;;;3.50;1.63;;;18.20;83.90;;;;;;4948877;28;20568;-76
2023/05/18 02:16:39;;;;;;;0.40;0.40;;;18.20;83.90;;;;;;4948311;28;20755;-76
2023/05/18 02:19:07;;;;;;;0.50;0.50;;;18.20;83.80;;;;;;4947713;28;20198;-76
2023/05/18 02:21:36;;;;;;;1.57;0.67;;;18.20;83.80;;;;;;4950247;28;20232;-75
2023/05/18 02:24:05;;;;;;;0.77;0.57;;;18.20;83.70;;;;;;4939986;28;20213;-76
2023/05/18 02:26:33;;;;;;;0.63;0.60;;;18.20;83.60;;;;;;4946659;28;20576;-75
2023/05/18 02:29:02;;;;;;;1.03;0.80;;;18.20;83.60;;;;;;4950625;28;20206;-76
2023/05/18 02:31:31;;;;;;;0.50;0.50;;;18.20;83.40;;;;;;4946949;28;20703;-76
2023/05/18 02:34:00;;;;;;;0.47;0.43;;;18.20;83.70;;;;;;4949741;28;20206;-76
2023/05/18 02:36:36;;;;;;;0.60;0.60;;;18.20;83.60;;;;;;4951793;28;20198;-76
2023/05/18 02:39:05;;;;;;;0.40;0.40;;;18.20;83.60;;;;;;4949253;29;20245;-76
2023/05/18 02:41:33;;;;;;;1.47;1.37;;;18.20;83.50;;;;;;4948612;28;20297;-77
2023/05/18 02:44:02;;;;;;;2.37;0.93;;;18.20;83.60;;;;;;4945602;28;20279;-76
2023/05/18 02:46:32;;;;;;;0.30;0.30;;;18.20;83.60;;;;;;4942808;28;20222;-75
2023/05/18 02:49:00;;;;;;;0.97;0.90;;;18.20;84.10;;;;;;4949636;28;20198;-75
2023/05/18 02:51:30;;;;;;;0.37;0.37;;;18.20;83.50;;;;;;4949445;28;20206;-75
2023/05/18 02:53:58;;;;;;;4.07;0.90;;;18.20;83.60;;;;;;4946378;28;20199;-75
2023/05/18 02:56:27;;;;;;;1.77;0.93;;;18.20;83.50;;;;;;4950537;28;20206;-75
2023/05/18 02:58:56;;;;;;;1.53;0.77;;;18.10;83.40;;;;;;4946784;28;20213;-76
2023/05/18 03:01:26;;;;;;;0.50;0.50;;;18.20;83.30;;;;;;4946466;28;20942;-76
2023/05/18 03:03:57;;;;;;;0.67;0.50;;;18.20;83.30;;;;;;4941320;28;20198;-76
2023/05/18 03:06:26;;;;;;;0.30;0.30;;;18.20;83.20;;;;;;4947134;28;20215;-76
2023/05/18 03:08:54;;;;;;;0.40;0.40;;;18.20;83.10;;;;;;4945860;28;20234;-76
2023/05/18 03:11:23;;;;;;;2.17;0.73;;;18.20;83.10;;;;;;4942270;28;20202;-75
2023/05/18 03:13:51;;;;;;;0.70;0.60;;;18.20;83.10;;;;;;4945161;28;20210;-76
2023/05/18 03:16:19;;;;;;;0.40;0.40;;;18.20;83.00;;;;;;4948536;28;20209;-76
2023/05/18 03:18:47;;;;;;;0.60;0.60;;;18.20;83.10;;;;;;4946785;28;20702;-76
2023/05/18 03:21:18;;;;;;;0.40;0.40;;;18.20;83.10;;;;;;4948898;28;20199;-76
2023/05/18 03:23:47;;;;;;;0.60;0.50;;;18.20;83.10;;;;;;4950422;28;20206;-75
2023/05/18 03:26:15;;;;;;;0.63;0.63;;;18.20;83.10;;;;;;4949397;28;20218;-75
2023/05/18 03:28:43;;;;;;;0.40;0.40;;;18.20;83.10;;;;;;4946095;28;20199;-75
2023/05/18 03:31:12;;;;;;;0.80;0.80;;;18.20;83.10;;;;;;4949378;28;20234;-76
2023/05/18 03:33:40;;;;;;;0.60;0.60;;;18.20;83.20;;;;;;4944865;28;20604;-75
2023/05/18 03:36:09;;;;;;;4.07;0.67;;;18.20;83.20;;;;;;4948980;28;20213;-76
2023/05/18 03:38:40;;;;;;;0.87;0.60;;;18.20;83.20;;;;;;4943937;28;20198;-76
2023/05/18 03:41:08;;;;;;;0.60;0.60;;;18.20;83.20;;;;;;4945284;28;20572;-75
2023/05/18 03:43:37;;;;;;;1.00;1.00;;;18.20;83.10;;;;;;4943360;28;20210;-76
2023/05/18 03:46:05;;;;;;;0.60;0.50;;;18.20;83.10;;;;;;4950596;28;20215;-75
2023/05/18 03:48:33;;;;;;;0.87;0.70;;;18.20;83.20;;;;;;4952040;28;20202;-76
2023/05/18 03:51:02;;;;;;;0.93;0.67;;;18.20;83.10;;;;;;4950928;29;20205;-75
2023/05/18 03:53:32;;;;;;;0.77;0.77;;;18.20;83.40;;;;;;4943291;28;20202;-75
2023/05/18 03:56:02;;;;;;;0.73;0.73;;;18.20;82.90;;;;;;4947884;28;20201;-76
2023/05/18 03:58:30;;;;;;;0.63;0.63;;;18.30;83.00;;;;;;4943367;28;20252;-75
2023/05/18 04:00:59;;;;;;;1.23;0.70;;;18.30;82.90;;;;;;4949811;28;20207;-75
2023/05/18 04:03:29;;;;;;;1.73;0.63;;;18.30;82.80;;;;;;4946961;28;20655;-75
2023/05/18 04:05:57;;;;;;;0.50;0.50;;;18.30;82.80;;;;;;4943915;28;20210;-76
2023/05/18 04:08:29;;;;;;;1.60;0.90;;;18.40;82.90;;;;;;4942857;28;20987;-76
2023/05/18 04:10:57;;;;;;;0.87;0.67;;;18.40;82.90;;;;;;4950583;28;20198;-75
2023/05/18 04:13:27;;;;;;;1.17;0.90;;;18.50;82.80;;;;;;4945946;28;20230;-75
2023/05/18 04:15:57;;;;;;;0.70;0.70;;;18.40;83.10;;;;;;4945680;28;20643;-75
2023/05/18 04:18:29;;;;;;;1.70;1.10;;;18.50;83.10;;;;;;4946773;28;20256;-75
2023/05/18 04:20:57;;;;;;;0.93;0.93;;;18.50;83.60;;;;;;4949625;28;20194;-75
2023/05/18 04:23:27;;;;;;;0.93;0.93;;;18.60;83.30;;;;;;4946314;28;20206;-75
2023/05/18 04:25:55;;;;;;;0.80;0.80;;;18.50;84.40;;;;;;4947688;28;20264;-76
2023/05/18 04:28:24;;;;;;;0.50;0.50;;;18.50;84.40;;;;;;4944894;28;20643;-76
2023/05/18 04:30:53;;;;;;;1.00;0.90;;;18.50;85.20;;;;;;4948173;28;20607;-76
2023/05/18 04:33:22;;;;;;;1.87;1.37;;;18.60;85.60;;;;;;4948124;28;20563;-75
2023/05/18 04:35:53;;;;;;;0.67;0.60;;;18.50;85.90;;;;;;4947030;28;20631;-79
2023/05/18 04:38:23;;;;;;;1.77;1.10;;;18.60;86.20;;;;;;4947314;28;20230;-76
2023/05/18 04:40:52;;;;;;;0.97;0.90;;;18.60;86.10;;;;;;4943179;28;20271;-81
2023/05/18 04:43:21;;;;;;;0.90;0.80;;;18.60;86.70;;;;;;4948767;28;21122;-74
2023/05/18 04:45:50;;;;;;;1.53;1.10;;;18.60;87.00;;;;;;4946803;28;20209;-76
2023/05/18 04:48:19;;;;;;;6.80;1.20;;;18.60;87.70;;;;;;4938197;28;20221;-76
2023/05/18 04:50:48;;;;;;;0.80;0.80;;;18.60;88.00;;;;;;4939927;28;20879;-76
2023/05/18 04:53:17;;;;;;;1.73;1.10;;;18.70;87.50;;;;;;4940084;28;20322;-77
2023/05/18 04:55:45;;;;;;;1.37;1.10;;;18.70;87.70;;;;;;4947618;28;20257;-75
2023/05/18 04:58:14;;;;;;;1.80;0.97;;;18.70;88.10;;;;;;4951758;28;20652;-75
2023/05/18 05:00:43;;;;;;;1.50;1.20;;;18.70;88.20;;;;;;4947152;28;20198;-75
2023/05/18 05:03:11;;;;;;;1.83;0.90;;;18.80;88.20;;;;;;4951830;28;20202;-75
2023/05/18 05:05:41;;;;;;;2.67;1.20;;;18.80;88.00;;;;;;4957255;29;20206;-75
2023/05/18 05:08:09;;;;;;;1.37;0.73;;;18.80;88.80;;;;;;4949298;28;20221;-76
2023/05/18 05:10:37;;;;;;;4.30;0.90;;;18.90;88.20;;;;;;4951645;28;20214;-78
2023/05/18 05:13:06;;;;;;;1.97;0.90;;;18.90;88.30;;;;;;4945443;28;20874;-75
2023/05/18 05:15:35;;;;;;;1.13;1.03;;;18.90;88.50;;;;;;4946101;28;20209;-75
2023/05/18 05:18:04;;;;;;;0.93;0.67;;;18.90;89.20;;;;;;4947274;28;20843;-75
2023/05/18 05:20:32;;;;;;;1.53;1.30;;;19.00;88.80;;;;;;4951812;28;20218;-74
2023/05/18 05:23:02;;;;;;;1.77;1.33;;;18.90;89.20;;;;;;4947936;28;20674;-76
2023/05/18 05:25:30;;;;;;;0.57;0.57;;;18.90;88.90;;;;;;4950982;28;20203;-75
2023/05/18 05:27:59;;;;;;;0.67;0.60;;;19.00;88.60;;;;;;4948830;28;20975;-75
2023/05/18 05:30:27;;;;;;;4.20;0.90;;;19.00;88.60;;;;;;4948218;28;20209;-74
2023/05/18 05:32:56;;;;;;;0.83;0.60;;;19.00;88.50;;;;;;4946718;28;20588;-76
2023/05/18 05:35:24;;;;;;;0.70;0.63;;;19.10;88.30;;;;;;4951881;28;20230;-75
2023/05/18 05:37:53;;;;;;;0.50;0.50;;;19.10;88.90;;;;;;4953456;28;20647;-75
2023/05/18 05:40:22;;;;;;;1.27;0.60;;;19.20;87.90;;;;;;4949176;28;20739;-75
2023/05/18 05:42:51;;;;;;;2.23;1.20;;;19.20;87.50;;;;;;4948920;28;20647;-76
2023/05/18 05:45:20;;;;;;;0.80;0.50;;;19.20;87.30;;;;;;4949862;28;20592;-76
2023/05/18 05:47:49;;;;;;;2.30;1.20;;;19.20;87.20;;;;;;4946596;28;20683;-76
2023/05/18 05:50:18;;;;;;;5.70;1.30;;;19.20;86.70;;;;;;4946159;28;20202;-76
2023/05/18 05:52:46;;;;;;;0.70;0.53;;;19.20;86.10;;;;;;4949844;28;20643;-74
2023/05/18 05:55:14;;;;;;;5.47;0.93;;;19.20;85.30;;;;;;4950689;28;20206;-76
2023/05/18 05:57:44;;;;;;;0.60;0.52;;;19.20;85.00;;;;;;4946011;28;20448;-76
2023/05/18 06:00:13;;;;;;;0.50;0.50;;;19.20;85.10;;;;;;4954287;28;20205;-75
2023/05/18 06:02:42;;;;;;;0.63;0.63;;;19.20;84.70;;;;;;4953469;28;20651;-76
2023/05/18 06:05:10;;;;;;;0.30;0.30;;;19.30;84.90;;;;;;4946817;28;20714;-75
2023/05/18 06:07:39;;;;;;;0.87;0.67;;;19.40;84.80;;;;;;4950109;28;20215;-74
2023/05/18 06:10:08;;;;;;;1.63;0.30;;;19.50;84.70;;;;;;4950400;28;20228;-74
2023/05/18 06:12:36;;;;;;;0.40;0.40;;;19.50;83.90;;;;;;4948131;28;20660;-75
2023/05/18 06:15:07;;;;;;;0.37;0.37;;;19.60;84.00;;;;;;4950798;28;20194;-74
2023/05/18 06:17:37;;;;;;;0.30;0.30;;;19.60;82.30;;;;;;4949433;28;20191;-74
2023/05/18 06:20:06;;;;;;;0.75;0.75;;;19.80;82.90;;;;;;4954780;28;20218;-74
2023/05/18 06:22:35;;;;;;;0.47;0.47;;;19.80;81.60;;;;;;4947869;28;20572;-74
2023/05/18 06:25:04;;;;;;;0.40;0.40;;;19.90;82.10;;;;;;4951736;28;20202;-74
2023/05/18 06:27:32;;;;;;;0.65;0.57;;;19.90;80.60;;;;;;4949547;28;20219;-75
2023/05/18 06:30:01;;;;;;;0.45;0.45;;;19.90;80.00;;;;;;4946162;28;20639;-76
2023/05/18 06:32:30;;;;;;;0.95;0.82;;;19.90;79.80;;;;;;4950508;28;20258;-75
2023/05/18 06:34:59;;;;;;;1.65;1.02;;;19.90;80.40;;;;;;4941176;28;20203;-74
2023/05/18 06:37:27;;;;;;;0.90;0.88;;;20.00;80.60;;;;;;4947195;28;20261;-74
2023/05/18 06:39:56;;;;;;;0.68;0.68;;;20.10;79.70;;;;;;4953998;29;20206;-75
2023/05/18 06:42:24;;;;;;;0.40;0.40;;;20.10;79.80;;;;;;4943188;28;20207;-76
2023/05/18 06:44:52;;;;;;;0.22;0.22;;;20.20;80.00;;;;;;4949672;28;20217;-75
2023/05/18 06:47:20;;;;;;;0.30;0.30;;;20.20;79.10;;;;;;4938321;28;20289;-75
2023/05/18 06:49:50;;;;;;;0.30;0.30;;;20.20;79.30;;;;;;4945226;28;20293;-75
2023/05/18 06:52:18;;;;;;;1.20;0.98;;;20.30;79.10;;;;;;4947113;28;20203;-77
2023/05/18 06:54:47;;;;;;;0.63;0.52;;;20.30;78.10;;;;;;4944396;28;20207;-75
2023/05/18 06:57:15;;;;;;;0.30;0.30;;;20.30;78.40;;;;;;4947688;28;20269;-75
2023/05/18 06:59:43;;;;;;;0.40;0.40;;;20.30;78.30;;;;;;4948142;28;20301;-75
2023/05/18 07:02:11;;;;;;;0.47;0.28;;;20.20;78.70;;;;;;4948778;28;20569;-77
2023/05/18 07:04:42;;;;;;;5.05;1.23;;;20.10;78.70;;;;;;4946538;28;20203;-76
2023/05/18 07:07:11;;;;;;;0.30;0.30;;;20.10;79.30;;;;;;4944403;28;20223;-75
2023/05/18 07:09:42;;;;;;;0.32;0.32;;;20.20;79.60;;;;;;4944981;28;20222;-75
2023/05/18 07:12:32;;;;;;;0.65;0.47;;;20.30;79.90;;;;;;4944044;28;20603;-78
2023/05/18 07:15:52;;;;;;;0.80;0.75;;;20.30;79.90;;;;;;4907296;28;20222;-77
2023/05/18 07:18:21;;;;;;;1.85;0.68;;;20.40;79.40;;;;;;4941195;28;20243;-75
2023/05/18 07:20:49;;;;;;;0.20;0.20;;;20.50;79.60;;;;;;4938989;28;20210;-75
2023/05/18 07:23:19;;;;;;;0.55;0.40;;;20.50;79.20;;;;;;4950598;28;20586;-75
2023/05/18 07:25:48;;;;;;;0.25;0.25;;;20.60;79.10;;;;;;4946551;28;20199;-75
2023/05/18 07:28:18;;;;;;;1.27;0.43;;;20.60;79.10;;;;;;4947419;28;20202;-76
2023/05/18 07:30:46;;;;;;;0.20;0.20;;;20.70;79.10;;;;;;4945722;28;20813;-75
2023/05/18 07:33:15;;;;;;;0.25;0.25;;;20.80;78.90;;;;;;4946861;28;20221;-74
2023/05/18 07:35:43;;;;;;;0.38;0.38;;;20.90;78.50;;;;;;4947976;28;20651;-75
2023/05/18 07:38:12;;;;;;;1.10;0.98;;;21.00;78.60;;;;;;4944374;28;20202;-74
2023/05/18 07:40:42;;;;;;;0.70;0.65;;;21.00;78.30;;;;;;4945282;29;20221;-75
2023/05/18 07:43:10;;;;;;;0.85;0.85;;;21.10;78.40;;;;;;4949607;28;20234;-75
2023/05/18 07:45:38;;;;;;;0.30;0.30;;;21.20;78.50;;;;;;4946830;28;22508;-75
2023/05/18 07:48:07;;;;;;;0.32;0.32;;;21.30;78.00;;;;;;4948443;28;20226;-75
2023/05/18 07:50:36;;;;;;;1.25;0.73;;;21.30;77.90;;;;;;4944469;28;20261;-75
2023/05/18 07:53:04;;;;;;;0.52;0.38;;;21.40;77.60;;;;;;4946221;28;20206;-76
2023/05/18 07:55:32;;;;;;;0.93;0.70;;;21.40;76.00;;;;;;4946447;28;20655;-78
2023/05/18 07:58:02;;;;;;;0.30;0.30;;;21.50;76.70;;;;;;4944293;28;20202;-76
2023/05/18 08:00:31;;;;;;;0.68;0.50;;;21.60;75.90;;;;;;4948817;28;20261;-75
2023/05/18 08:02:59;;;;;;;0.40;0.40;;;21.70;75.40;;;;;;4940380;28;20213;-76
2023/05/18 08:05:28;;;;;;;1.30;0.77;;;21.80;75.50;;;;;;4945107;28;20566;-77
2023/05/18 08:07:57;;;;;;;4.50;0.40;;;21.80;74.90;;;;;;4948614;28;20207;-77
2023/05/18 08:10:25;;;;;;;0.35;0.35;;;21.90;75.40;;;;;;4949031;28;20214;-75
2023/05/18 08:12:54;;;;;;;0.38;0.38;;;22.00;75.40;;;;;;4949156;28;20202;-75
2023/05/18 08:15:24;;;;;;;0.45;0.40;;;22.00;75.50;;;;;;4948891;28;20702;-82
2023/05/18 08:17:53;;;;;;;0.77;0.70;;;22.10;74.50;;;;;;4936216;28;20214;-73
2023/05/18 08:20:24;;;;;;;0.75;0.60;;;22.10;73.70;;;;;;4945744;29;20208;-75
2023/05/18 08:22:52;;;;;;;0.30;0.30;;;22.10;74.00;;;;;;4944643;28;20207;-77
2023/05/18 08:25:21;;;;;;;0.40;0.40;;;22.20;74.40;;;;;;4943717;28;20198;-75
2023/05/18 08:27:49;;;;;;;0.85;0.68;;;22.20;74.00;;;;;;4942774;28;20531;-74
2023/05/18 08:30:41;;;;;;;0.65;0.65;;;22.30;74.30;;;;;;4948244;28;20229;-76
2023/05/18 08:33:09;;;;;;;0.88;0.40;;;22.30;73.00;;;;;;4947838;28;20194;-76
2023/05/18 08:35:38;;;;;;;0.47;0.43;;;22.30;71.90;;;;;;4946368;28;20206;-76
2023/05/18 08:38:07;;;;;;;2.33;0.68;;;22.30;72.00;;;;;;4947684;28;20198;-75
2023/05/18 08:40:42;;;;;;;0.40;0.40;;;22.30;71.70;;;;;;4950309;28;20220;-76
2023/05/18 08:43:17;;;;;;;0.47;0.45;;;22.30;72.20;;;;;;4950488;28;20201;-76
2023/05/18 08:45:50;;;;;;;0.30;0.30;;;22.30;72.80;;;;;;4950213;28;20187;-76
2023/05/18 08:48:21;;;;;;;0.30;0.30;;;22.40;72.80;;;;;;4951745;28;20198;-76
2023/05/18 08:50:55;;;;;;;3.03;0.47;;;22.40;72.40;;;;;;4958942;28;20204;-79
2023/05/18 08:53:33;;;;;;;0.50;0.50;;;22.40;71.10;;;;;;4948691;28;20579;-79
2023/05/18 08:56:02;;;;;;;0.40;0.40;;;22.40;70.90;;;;;;4951080;28;20724;-75
2023/05/18 08:58:35;;;;;;;0.47;0.32;;;22.50;71.40;;;;;;4954512;29;20257;-75
2023/05/18 09:01:05;;;;;;;0.38;0.38;;;22.60;71.80;;;;;;4950946;28;20617;-75
2023/05/18 09:03:34;;;;;;;0.45;0.45;;;22.70;71.90;;;;;;4946268;28;20198;-75
2023/05/18 09:06:04;;;;;;;0.28;0.28;;;22.70;71.10;;;;;;4947896;28;20583;-75
2023/05/18 09:08:33;;;;;;;2.20;0.45;;;22.70;69.90;;;;;;4945508;28;20202;-76
2023/05/18 09:11:03;;;;;;;0.38;0.35;;;22.80;70.10;;;;;;4949530;28;20583;-76
2023/05/18 09:13:32;;;;;;;0.30;0.30;;;22.90;70.30;;;;;;4944172;28;20206;-76
2023/05/18 09:16:00;;;;;;;0.20;0.20;;;23.00;70.60;;;;;;4947963;28;20645;-75
2023/05/18 09:18:30;;;;;;;0.43;0.43;;;23.00;70.20;;;;;;4945400;28;20211;-76
2023/05/18 09:20:58;;;;;;;1.25;0.63;;;23.10;70.00;;;;;;4949165;28;20744;-75
2023/05/18 09:23:26;;;;;;;1.02;0.77;;;23.20;70.10;;;;;;4949857;28;20221;-76
2023/05/18 09:25:56;;;;;;;0.57;0.57;;;23.20;69.40;;;;;;4946423;28;20206;-77
2023/05/18 09:28:35;;;;;;;1.27;0.63;;;23.20;67.90;;;;;;4949436;28;20324;-78
2023/05/18 09:31:16;;;;;;;3.67;0.60;;;23.30;68.70;;;;;;4941419;28;20253;-76
2023/05/18 09:33:47;;;;;;;2.08;0.82;;;23.40;68.80;;;;;;4926330;29;20642;-76
2023/05/18 09:36:16;;;;;;;0.30;0.30;;;23.60;68.60;;;;;;4927978;29;20195;-77
2023/05/18 09:38:45;;;;;;;1.77;0.60;;;23.60;67.70;;;;;;4926090;29;20203;-77
2023/05/18 09:41:16;;;;;;;0.38;0.38;;;23.60;65.70;;;;;;4931806;29;20250;-74
2023/05/18 09:43:45;;;;;;;0.40;0.40;;;23.70;65.60;;;;;;4931446;29;20418;-75
2023/05/18 09:46:13;;;;;;;0.32;0.32;;;23.70;66.30;;;;;;4930071;29;20286;-75
2023/05/18 09:48:43;;;;;;;1.85;0.88;;;23.80;66.50;;;;;;4927097;29;20212;-77
2023/05/18 09:51:16;;;;;;;0.30;0.30;;;23.90;67.00;;;;;;4926433;29;20195;-76
2023/05/18 09:53:49;;;;;;;0.50;0.50;;;23.90;68.20;;;;;;4930736;29;20203;-75
2023/05/18 09:56:18;;;;;;;8.60;0.88;;;23.90;66.10;;;;;;4929011;29;20834;-76
2023/05/18 09:58:47;;;;;;;0.90;0.40;;;23.90;64.00;;;;;;4928737;29;20644;-75
2023/05/18 10:01:16;;;;;;;0.40;0.40;;;23.90;63.30;;;;;;4925057;29;20210;-75
2023/05/18 10:03:47;;;;;;;1.00;0.82;;;23.90;63.80;;;;;;4925267;29;20229;-75
2023/05/18 10:06:18;;;;;;;0.68;0.65;;;23.90;63.00;;;;;;4931316;29;20282;-76
2023/05/18 10:08:47;;;;;;;2.08;0.68;;;23.90;62.30;;;;;;4932302;29;20200;-76
2023/05/18 10:11:18;;;;;;;1.60;0.98;;;24.00;62.60;;;;;;4923706;29;20223;-75
2023/05/18 10:13:46;;;;;;;2.15;0.88;;;24.00;62.70;;;;;;4929756;29;20195;-77
2023/05/18 10:16:16;;;;;;;1.95;0.85;;;24.00;62.20;;;;;;4932684;29;20671;-75
2023/05/18 10:18:45;;;;;;;1.30;0.70;;;24.00;62.80;;;;;;4928641;29;20205;-75
2023/05/18 10:21:17;;;;;;;1.95;0.93;;;24.10;61.50;;;;;;4929435;29;20195;-76
2023/05/18 10:23:48;;;;;;;1.08;0.98;;;24.00;60.70;;;;;;4928524;29;20203;-77
2023/05/18 10:26:22;;;;;;;0.75;0.75;;;23.90;60.90;;;;;;4926735;29;20207;-75
2023/05/18 10:28:51;;;;;;;1.55;0.82;;;23.90;60.90;;;;;;4930447;29;20222;-77
2023/05/18 10:31:21;;;;;;;1.67;1.30;;;24.00;61.50;;;;;;4912636;29;20476;-76
2023/05/18 10:33:51;;;;;;;0.50;0.50;;;24.00;61.80;;;;;;4910316;29;20207;-75
2023/05/18 10:36:24;;;;;;;1.13;0.95;;;24.10;62.50;;;;;;4903872;29;20203;-77
2023/05/18 10:38:53;;;;;;;0.52;0.50;;;24.10;61.80;;;;;;4908159;29;20661;-75
2023/05/18 10:41:23;;;;;;;0.82;0.63;;;24.20;61.30;;;;;;4906419;29;20223;-78
2023/05/18 10:43:52;;;;;;;2.42;0.90;;;24.30;61.30;;;;;;4914255;29;20200;-77
2023/05/18 10:46:25;;;;;;;2.10;1.15;;;24.30;62.10;;;;;;4908831;29;20211;-75
2023/05/18 10:48:55;;;;;;;0.73;0.73;;;24.40;59.50;;;;;;4911071;29;20467;-76
2023/05/18 10:51:29;;;;;;;1.30;0.80;;;24.40;60.10;;;;;;4912958;29;20224;-75
2023/05/18 10:54:11;;;;;;;0.68;0.63;;;24.60;60.40;;;;;;4908832;29;20707;-78
2023/05/18 10:56:40;;;;;;;2.35;0.98;;;24.60;59.90;;;;;;4913142;29;20199;-74
2023/05/18 10:59:09;;;;;;;3.20;1.27;;;24.60;58.90;;;;;;4912810;29;20207;-76
2023/05/18 11:01:40;;;;;;;0.57;0.50;;;24.70;58.90;;;;;;4912943;29;20200;-76
2023/05/18 11:04:08;;;;;;;3.72;1.10;;;24.70;59.00;;;;;;4906735;29;20251;-75
2023/05/18 11:06:38;;;;;;;1.02;0.70;;;24.70;59.20;;;;;;4912989;29;20279;-76
2023/05/18 11:09:06;;;;;;;0.75;0.57;;;24.70;59.00;;;;;;4911153;29;20606;-76
2023/05/18 11:11:52;;;;;;;1.88;1.23;;;24.60;57.20;;;;;;4910933;29;20231;-77
2023/05/18 11:14:28;;;;;;;2.22;1.15;;;24.50;58.00;;;;;;4906441;29;20200;-74
2023/05/18 11:17:18;;;;;;;1.23;0.80;;;24.50;57.60;;;;;;4906252;29;20210;-75
2023/05/18 11:20:14;;;;;;;1.08;0.90;;;24.40;57.40;;;;;;4910337;29;20211;-77
2023/05/18 11:44:18;;;;;;;1.27;0.75;;;24.80;55.30;;;;;;5643032;24;20230;-87
2023/05/18 11:47:14;;;;;;;0.98;0.80;;;24.80;55.60;;;;;;4832653;29;20207;-92
2023/05/18 11:57:30;;;;;;;1.05;0.90;;;25.10;54.10;;;;;;4775069;30;20213;-91
2023/05/18 12:00:06;;;;;;;1.23;0.98;;;25.10;54.50;;;;;;4770850;30;20206;-87
2023/05/18 12:02:35;;;;;;;0.95;0.85;;;25.10;54.20;;;;;;4770967;30;20289;-86
2023/05/18 12:05:08;;;;;;;0.93;0.75;;;25.00;53.60;;;;;;4765643;30;20209;-86
2023/05/18 12:08:01;;;;;;;1.95;1.02;;;24.90;53.80;;;;;;4751422;30;20237;-94
2023/05/18 12:10:45;;;;;;;0.90;0.60;;;24.80;53.60;;;;;;4746496;30;20288;-86
2023/05/18 12:13:14;;;;;;;0.95;0.85;;;24.70;53.10;;;;;;4748938;30;20206;-81
2023/05/18 12:15:45;;;;;;;2.00;1.17;;;24.80;54.00;;;;;;4767024;30;20687;-83
2023/05/18 12:18:14;;;;;;;0.65;0.63;;;24.80;54.40;;;;;;4760536;30;20220;-83
2023/05/18 12:20:42;;;;;;;2.25;1.17;;;24.60;53.90;;;;;;4768212;29;20915;-83
2023/05/18 12:23:11;;;;;;;1.13;0.82;;;24.60;54.20;;;;;;4762770;30;20222;-82
2023/05/18 12:25:40;;;;;;;1.52;1.13;;;24.60;54.60;;;;;;4758073;30;20213;-85
2023/05/18 12:38:59;;;;;;;0.63;0.60;;;24.90;55.20;;;;;;4776375;29;20695;-85
2023/05/18 12:41:33;;;;;;;0.65;0.60;;;25.10;55.20;;;;;;4825372;29;20212;-86
2023/05/18 12:44:03;;;;;;;1.10;1.00;;;25.20;54.60;;;;;;4855071;29;20651;-84
2023/05/18 12:46:32;;;;;;;1.98;1.20;;;25.30;55.10;;;;;;4843072;29;20208;-85
2023/05/18 12:49:03;;;;;;;1.63;0.80;;;25.40;55.20;;;;;;4828890;29;20648;-88
2023/05/18 12:51:35;;;;;;;3.00;1.00;;;25.50;54.80;;;;;;4855532;29;20528;-86
2023/05/18 12:54:06;;;;;;;4.60;1.13;;;25.60;54.60;;;;;;4851134;29;20681;-83
2023/05/18 12:57:09;;;;;;;1.25;1.00;;;25.70;54.00;;;;;;4852619;29;20213;-84
2023/05/18 12:59:49;;;;;;;1.73;0.70;;;25.80;54.30;;;;;;4849382;29;20208;-86
2023/05/18 13:02:37;;;;;;;1.42;0.85;;;25.70;52.50;;;;;;4855878;29;20290;-84
2023/05/18 13:05:08;;;;;;;1.55;1.00;;;25.60;52.10;;;;;;4849280;29;20589;-85
2023/05/18 13:07:39;;;;;;;1.27;0.88;;;25.50;52.80;;;;;;4849286;29;20558;-87
2023/05/18 13:10:10;;;;;;;0.90;0.63;;;25.40;52.60;;;;;;4854640;29;20216;-86
2023/05/18 13:12:45;;;;;;;3.50;1.05;;;25.20;53.00;;;;;;4868096;29;20233;-86
2023/05/18 13:15:15;;;;;;;1.88;1.33;;;25.20;53.40;;;;;;4860267;29;20206;-84
2023/05/18 13:18:00;;;;;;;1.90;1.05;;;25.10;53.40;;;;;;4856231;29;20194;-87
2023/05/18 13:20:36;;;;;;;1.75;1.05;;;25.10;53.50;;;;;;4848474;29;20272;-87
2023/05/18 13:23:08;;;;;;;0.70;0.70;;;25.10;53.30;;;;;;4850161;29;20201;-86
2023/05/18 13:25:36;;;;;;;1.40;0.95;;;25.10;53.50;;;;;;4852970;29;20401;-84
2023/05/18 13:28:09;;;;;;;0.82;0.82;;;25.20;53.80;;;;;;4849274;29;20209;-88
2023/05/18 13:30:38;;;;;;;0.80;0.80;;;25.20;53.90;;;;;;4852168;29;20241;-84
2023/05/18 13:33:08;;;;;;;2.30;1.38;;;25.20;53.80;;;;;;4859641;29;20248;-85
2023/05/18 13:35:40;;;;;;;1.05;0.77;;;25.30;53.80;;;;;;4857087;29;20633;-87
2023/05/18 13:38:09;;;;;;;1.65;0.50;;;25.40;53.90;;;;;;4855959;29;20206;-86
2023/05/18 13:40:39;;;;;;;0.70;0.60;;;25.40;53.60;;;;;;4853826;29;20198;-88
2023/05/18 13:43:09;;;;;;;8.05;1.23;;;25.50;53.80;;;;;;4849894;29;20565;-86
2023/05/18 13:45:40;;;;;;;0.70;0.70;;;25.50;53.70;;;;;;4851082;29;20210;-87